TimePDT,TemperatureF,Dew PointF,Humidity,Sea Level PressureIn,VisibilityMPH,Wind Direction,Wind SpeedMPH,Gust SpeedMPH,PrecipitationIn,Events,Conditions,WindDirDegrees,DateUTC
12:48 AM,52.0,45.0,77,29.95,10.0,NNW,12.7,-,N/A,,Clear,330,2012-10-09 07:48:00
1:48 AM,51.1,45.0,80,29.95,10.0,NNW,18.4,-,N/A,,Clear,340,2012-10-09 08:48:00
2:48 AM,50.0,45.0,83,29.94,10.0,NNW,16.1,-,N/A,,Clear,330,2012-10-09 09:48:00
3:48 AM,48.9,44.1,83,29.94,10.0,NNW,17.3,-,N/A,,Clear,330,2012-10-09 10:48:00
4:48 AM,48.0,43.0,83,29.94,10.0,NNW,17.3,-,N/A,,Clear,330,2012-10-09 11:48:00
5:48 AM,48.9,42.1,77,29.94,10.0,NNW,19.6,-,N/A,,Clear,330,2012-10-09 12:48:00
6:48 AM,48.9,41.0,74,29.96,10.0,NW,13.8,-,N/A,,Clear,320,2012-10-09 13:48:00
7:48 AM,50.0,39.9,68,29.97,10.0,NNW,10.4,-,N/A,,Clear,330,2012-10-09 14:48:00
8:48 AM,54.0,39.9,59,29.97,10.0,NNW,9.2,-,N/A,,Clear,330,2012-10-09 15:48:00
9:48 AM,57.9,39.9,51,29.97,10.0,WNW,3.5,-,N/A,,Clear,290,2012-10-09 16:48:00
10:48 AM,60.8,39.2,45,30.07,10.0,Variable,5.8,-,N/A,,Clear,0,2012-10-09 17:48:00
11:48 AM,64.0,39.9,41,29.94,10.0,South,10.4,-,N/A,,Clear,190,2012-10-09 18:48:00
12:48 PM,63.0,46.0,54,29.94,10.0,SSE,10.4,20.7,N/A,,Partly Cloudy,160,2012-10-09 19:48:00
1:21 PM,-9999,-9999,N/A,-9999,-9999.0,North,-9999.0,-,N/A,,Unknown,0,2012-10-09 20:21:00
1:29 PM,60.8,46.4,59,30.03,10.0,South,13.8,20.7,N/A,,Scattered Clouds,180,2012-10-09 20:29:00
1:48 PM,64.9,46.9,52,29.92,10.0,South,15.0,20.7,N/A,,Partly Cloudy,170,2012-10-09 20:48:00
2:48 PM,64.0,46.0,52,29.92,10.0,South,16.1,21.9,N/A,,Partly Cloudy,180,2012-10-09 21:48:00
3:48 PM,62.1,46.0,56,29.92,10.0,South,12.7,20.7,N/A,,Mostly Cloudy,180,2012-10-09 22:48:00
4:48 PM,59.0,45.0,60,29.93,10.0,SSW,12.7,-,N/A,,Overcast,200,2012-10-09 23:48:00
5:48 PM,57.0,43.0,59,29.93,10.0,South,12.7,20.7,N/A,,Mostly Cloudy,180,2012-10-10 00:48:00
6:48 PM,54.0,48.0,80,29.94,10.0,SSW,8.1,20.7,N/A,,Mostly Cloudy,210,2012-10-10 01:48:00
7:48 PM,52.0,48.0,86,29.95,10.0,SSW,8.1,-,N/A,,Clear,200,2012-10-10 02:48:00
8:48 PM,52.0,46.0,80,29.95,10.0,South,10.4,-,N/A,,Partly Cloudy,180,2012-10-10 03:48:00
9:17 PM,50.0,46.4,87,30.05,10.0,SSW,6.9,-,N/A,,Mostly Cloudy,200,2012-10-10 04:17:00
9:38 PM,50.0,46.4,87,30.04,10.0,SSW,8.1,-,N/A,,Mostly Cloudy,210,2012-10-10 04:38:00
9:48 PM,50.0,46.0,86,29.95,10.0,South,9.2,-,N/A,,Scattered Clouds,190,2012-10-10 04:48:00
10:48 PM,51.1,46.9,86,29.95,10.0,South,6.9,-,N/A,,Scattered Clouds,190,2012-10-10 05:48:00
11:00 PM,48.2,46.4,93,30.04,8.0,SSW,6.9,-,N/A,,Mostly Cloudy,210,2012-10-10 06:00:00
11:05 PM,48.2,46.4,93,30.04,4.0,SSW,6.9,-,N/A,,Mostly Cloudy,210,2012-10-10 06:05:00
11:09 PM,48.2,46.4,93,30.04,1.8,SSW,8.1,-,N/A,,Mostly Cloudy,210,2012-10-10 06:09:00
11:12 PM,48.2,46.4,93,30.04,0.8,SSW,6.9,-,N/A,,Mostly Cloudy,210,2012-10-10 06:12:00
11:25 PM,48.2,48.2,100,30.03,1.8,SSW,9.2,-,N/A,,Overcast,200,2012-10-10 06:25:00
11:29 PM,48.2,48.2,100,30.03,2.5,SSW,9.2,-,N/A,,Overcast,210,2012-10-10 06:29:00
11:38 PM,48.2,48.2,100,30.03,1.2,South,9.2,-,N/A,,Overcast,190,2012-10-10 06:38:00
11:43 PM,50.0,48.2,94,30.03,0.5,South,8.1,-,N/A,Fog,Fog,190,2012-10-10 06:43:00
11:48 PM,48.9,48.0,97,29.93,0.5,SSW,6.9,-,N/A,Fog,Fog,200,2012-10-10 06:48:00
11:54 PM,48.2,48.2,100,30.03,0.2,SSW,8.1,-,N/A,Fog,Fog,210,2012-10-10 06:54:00